Time;durP1;ratioP1;P1;durP2;ratioP2;P2;SDS_P1;SDS_P2;PMS_P1;PMS_P2;Temp;Humidity;BMP_temperature;BMP_pressure;BME280_temperature;BME280_humidity;BME280_pressure;Samples;Min_cycle;Max_cycle;Signal;HPM_P1;HPM_P2
2021/12/13 00:01:55;;;;;;;24.63;13.17;;;9.20;99.90;;;;;;5079148;28;20767;-62
2021/12/13 00:04:28;;;;;;;27.40;13.87;;;9.30;99.90;;;;;;5081687;28;20545;-62
2021/12/13 00:07:01;;;;;;;28.97;16.13;;;9.30;99.90;;;;;;5050867;28;20236;-62
2021/12/13 00:09:39;;;;;;;26.93;15.47;;;9.20;99.90;;;;;;5061894;28;20237;-62
2021/12/13 00:12:09;;;;;;;24.87;14.80;;;9.20;99.90;;;;;;5078193;28;20238;-62
2021/12/13 00:14:40;;;;;;;27.60;14.47;;;9.20;99.90;;;;;;5075916;28;20238;-62
2021/12/13 00:17:11;;;;;;;25.77;14.80;;;9.40;99.90;;;;;;5077889;28;20258;-62
2021/12/13 00:19:44;;;;;;;27.50;15.33;;;9.30;99.90;;;;;;5073416;28;21002;-62
2021/12/13 00:22:21;;;;;;;22.13;13.33;;;9.20;99.90;;;;;;5066251;28;20271;-62
2021/12/13 00:24:52;;;;;;;26.63;14.97;;;9.20;99.90;;;;;;5072006;28;20590;-62
2021/12/13 00:27:23;;;;;;;25.07;13.93;;;9.20;99.90;;;;;;5080538;28;20234;-62
2021/12/13 00:29:57;;;;;;;25.47;14.37;;;9.30;99.90;;;;;;5051202;28;20285;-62
2021/12/13 00:32:35;;;;;;;27.67;14.00;;;9.40;99.90;;;;;;5075474;28;20240;-62
2021/12/13 00:35:09;;;;;;;24.40;13.80;;;9.50;99.90;;;;;;5071526;28;20333;-62
2021/12/13 00:37:41;;;;;;;24.30;13.87;;;9.40;99.90;;;;;;5063268;28;20645;-62
2021/12/13 00:40:14;;;;;;;23.20;12.20;;;9.30;99.90;;;;;;5072588;28;20223;-62
2021/12/13 00:42:48;;;;;;;22.57;11.70;;;9.40;99.90;;;;;;5079053;28;20235;-62
2021/12/13 00:45:20;;;;;;;22.60;12.27;;;9.30;99.90;;;;;;5068929;28;20239;-62
2021/12/13 00:47:49;;;;;;;22.10;11.83;;;9.30;99.90;;;;;;5080135;28;20293;-62
2021/12/13 00:50:22;;;;;;;23.30;12.57;;;9.40;99.90;;;;;;5068662;28;20231;-62
2021/12/13 00:52:53;;;;;;;21.20;11.17;;;9.40;99.90;;;;;;5069274;28;20365;-62
2021/12/13 00:55:24;;;;;;;23.40;12.80;;;9.50;99.90;;;;;;5069453;28;20253;-62
2021/12/13 00:58:05;;;;;;;21.23;12.80;;;9.50;99.90;;;;;;5072306;28;20231;-62
2021/12/13 01:00:36;;;;;;;24.37;13.20;;;9.50;99.90;;;;;;5073557;28;20234;-62
2021/12/13 01:03:07;;;;;;;22.53;12.23;;;9.40;99.90;;;;;;5067866;28;20231;-62
2021/12/13 01:05:59;;;;;;;24.10;12.67;;;9.40;99.90;;;;;;5067597;28;20976;-62
2021/12/13 01:09:20;;;;;;;23.67;12.93;;;9.50;99.90;;;;;;5069207;28;20262;-62
2021/12/13 01:11:55;;;;;;;22.87;11.70;;;9.40;99.90;;;;;;5073273;28;20235;-62
2021/12/13 01:14:57;;;;;;;26.67;13.40;;;9.50;99.90;;;;;;5070974;28;20233;-62
2021/12/13 01:17:43;;;;;;;24.03;12.40;;;9.50;99.90;;;;;;4995839;28;20295;-62
2021/12/13 01:20:17;;;;;;;22.13;11.57;;;9.50;99.90;;;;;;5066530;28;20246;-62
2021/12/13 01:22:50;;;;;;;22.33;11.90;;;9.50;99.90;;;;;;5064528;28;20597;-62
2021/12/13 01:25:40;;;;;;;24.60;13.30;;;9.50;99.90;;;;;;5077100;28;20277;-62
2021/12/13 01:28:22;;;;;;;25.60;12.07;;;9.50;99.90;;;;;;5075737;28;20350;-62
2021/12/13 01:30:55;;;;;;;26.93;12.13;;;9.60;99.90;;;;;;5063638;28;20320;-62
2021/12/13 01:33:25;;;;;;;27.90;13.37;;;9.60;99.90;;;;;;5081888;28;20731;-62
2021/12/13 01:35:56;;;;;;;26.47;12.60;;;9.50;99.90;;;;;;5069817;28;20236;-62
2021/12/13 01:38:32;;;;;;;25.40;12.97;;;9.50;99.90;;;;;;5068926;28;20266;-62
2021/12/13 01:41:06;;;;;;;23.93;10.87;;;9.50;99.90;;;;;;5074565;28;20758;-62
2021/12/13 01:43:38;;;;;;;22.67;11.60;;;9.60;99.90;;;;;;5067509;28;20251;-62
2021/12/13 01:46:06;;;;;;;28.37;14.43;;;9.70;99.90;;;;;;5070121;28;20280;-62
2021/12/13 01:48:38;;;;;;;25.50;12.70;;;9.70;99.90;;;;;;5080541;28;20706;-62
2021/12/13 01:51:11;;;;;;;26.97;12.77;;;9.60;99.90;;;;;;5075860;28;20266;-62
2021/12/13 01:53:42;;;;;;;27.33;12.60;;;9.60;99.90;;;;;;5072463;28;20250;-62
2021/12/13 01:56:36;;;;;;;26.87;13.00;;;9.60;99.90;;;;;;5072193;28;20337;-62
2021/12/13 01:59:26;;;;;;;32.57;13.90;;;9.50;99.90;;;;;;5063801;28;20318;-62
2021/12/13 02:01:56;;;;;;;30.20;14.00;;;9.60;99.90;;;;;;5074965;28;20238;-62
2021/12/13 02:04:25;;;;;;;30.27;13.87;;;9.60;99.90;;;;;;5072313;28;20248;-62
2021/12/13 02:07:01;;;;;;;29.50;13.60;;;9.60;99.90;;;;;;5075490;28;20696;-62
2021/12/13 02:09:33;;;;;;;31.27;14.43;;;9.60;99.90;;;;;;5078028;28;20261;-62
2021/12/13 02:12:04;;;;;;;33.60;15.23;;;9.70;99.90;;;;;;5072890;28;20234;-62
2021/12/13 02:14:35;;;;;;;33.63;15.23;;;9.70;99.90;;;;;;5066816;28;20330;-62
2021/12/13 02:17:10;;;;;;;38.50;16.27;;;9.60;99.90;;;;;;5073627;28;20249;-62
2021/12/13 02:19:44;;;;;;;35.67;15.00;;;9.60;99.90;;;;;;5064102;28;20261;-62
2021/12/13 02:22:34;;;;;;;35.80;16.57;;;9.70;99.90;;;;;;5065733;28;20258;-62
2021/12/13 02:25:13;;;;;;;36.83;16.37;;;9.70;99.90;;;;;;5069620;28;20238;-62
2021/12/13 02:27:45;;;;;;;34.83;15.17;;;9.70;99.90;;;;;;5064157;28;20673;-62
2021/12/13 02:30:19;;;;;;;33.77;15.00;;;9.70;99.90;;;;;;5072546;28;20254;-62
2021/12/13 02:32:48;;;;;;;35.60;15.73;;;9.70;99.90;;;;;;5074986;28;20238;-62
2021/12/13 02:35:20;;;;;;;34.67;16.67;;;9.80;99.90;;;;;;5074594;28;20238;-62
2021/12/13 02:37:50;;;;;;;30.63;14.57;;;9.70;99.90;;;;;;5076226;28;20316;-62
2021/12/13 02:40:21;;;;;;;30.63;14.80;;;9.80;99.90;;;;;;5074261;28;20316;-62
2021/12/13 02:42:51;;;;;;;30.43;14.87;;;9.80;99.90;;;;;;5075669;28;20707;-62
2021/12/13 02:45:25;;;;;;;30.10;14.20;;;9.70;99.90;;;;;;5073488;28;20245;-62
2021/12/13 02:48:00;;;;;;;29.00;14.67;;;9.80;99.90;;;;;;5072776;28;20657;-62
2021/12/13 02:50:36;;;;;;;32.40;13.50;;;9.70;99.90;;;;;;5076030;28;20269;-62
2021/12/13 02:53:07;;;;;;;35.47;14.80;;;9.80;99.90;;;;;;5072693;28;20322;-62
2021/12/13 02:55:36;;;;;;;29.73;13.53;;;9.80;99.90;;;;;;5067452;28;20289;-62
2021/12/13 02:58:09;;;;;;;31.10;13.80;;;9.80;99.90;;;;;;5070953;28;20227;-62
2021/12/13 03:00:44;;;;;;;28.63;12.93;;;9.90;99.90;;;;;;5068423;28;20297;-62
2021/12/13 03:03:16;;;;;;;32.60;14.90;;;9.80;99.90;;;;;;5073214;28;20234;-62
2021/12/13 03:05:49;;;;;;;28.83;13.80;;;9.80;99.90;;;;;;5067070;28;20239;-62
2021/12/13 03:08:22;;;;;;;31.67;14.27;;;9.80;99.90;;;;;;5069654;28;20250;-62
2021/12/13 03:10:53;;;;;;;25.60;12.00;;;9.80;99.90;;;;;;5059330;28;20326;-62
2021/12/13 03:13:22;;;;;;;30.77;13.73;;;9.90;99.90;;;;;;5066573;28;20254;-62
2021/12/13 03:15:59;;;;;;;27.87;13.10;;;9.90;99.90;;;;;;5073104;28;20322;-62
2021/12/13 03:18:38;;;;;;;26.30;12.43;;;9.80;99.90;;;;;;5071182;28;20325;-62
2021/12/13 03:21:29;;;;;;;25.80;12.93;;;9.90;99.90;;;;;;5072460;28;20647;-62
2021/12/13 03:24:18;;;;;;;25.27;12.57;;;9.90;99.90;;;;;;5063519;28;20277;-62
2021/12/13 03:27:06;;;;;;;26.33;12.43;;;9.90;99.90;;;;;;5062445;28;20297;-62
2021/12/13 03:29:52;;;;;;;24.10;12.10;;;9.90;99.90;;;;;;5068467;28;20318;-62
2021/12/13 03:32:22;;;;;;;22.97;11.03;;;9.90;99.90;;;;;;5073062;28;20268;-62
2021/12/13 03:34:59;;;;;;;23.57;12.00;;;10.10;99.90;;;;;;5076891;28;20231;-62
2021/12/13 03:37:27;;;;;;;23.53;11.87;;;10.00;99.90;;;;;;5077988;28;20689;-62
2021/12/13 03:40:01;;;;;;;20.87;11.13;;;9.90;99.90;;;;;;5071016;28;20246;-62
2021/12/13 03:42:33;;;;;;;22.63;11.50;;;10.00;99.90;;;;;;5071255;28;20246;-62
2021/12/13 03:45:11;;;;;;;26.97;11.87;;;9.90;99.90;;;;;;5070447;28;20323;-62
2021/12/13 03:47:44;;;;;;;24.87;11.87;;;9.90;99.90;;;;;;5064292;28;20648;-62
2021/12/13 03:50:16;;;;;;;24.97;12.50;;;10.00;99.90;;;;;;5064156;28;20252;-62
2021/12/13 03:52:47;;;;;;;24.30;12.27;;;10.00;99.90;;;;;;5072197;28;20243;-62
2021/12/13 03:55:20;;;;;;;21.67;10.83;;;10.00;99.90;;;;;;5074147;28;20235;-62
2021/12/13 03:57:53;;;;;;;23.23;11.53;;;10.00;99.90;;;;;;5066155;28;20266;-62
2021/12/13 04:00:26;;;;;;;21.73;10.60;;;10.00;99.90;;;;;;5078279;28;20289;-62
2021/12/13 04:02:58;;;;;;;21.80;11.17;;;10.00;99.90;;;;;;5075830;28;20239;-62
2021/12/13 04:05:29;;;;;;;21.60;10.43;;;9.90;99.90;;;;;;5070887;28;20239;-62
2021/12/13 04:08:02;;;;;;;18.60;9.73;;;9.90;99.90;;;;;;5070992;28;20660;-62
2021/12/13 04:10:34;;;;;;;21.43;11.00;;;9.90;99.90;;;;;;5073588;28;20699;-62
2021/12/13 04:13:11;;;;;;;21.43;10.40;;;9.90;99.90;;;;;;5072678;28;20338;-62
2021/12/13 04:15:56;;;;;;;22.20;11.43;;;9.90;99.90;;;;;;5066483;28;20312;-62
2021/12/13 04:18:40;;;;;;;22.30;11.00;;;10.00;99.90;;;;;;5074106;28;20807;-62
2021/12/13 04:21:10;;;;;;;22.10;10.90;;;9.90;99.90;;;;;;5078148;28;20243;-62
2021/12/13 04:23:40;;;;;;;19.60;10.67;;;10.00;99.90;;;;;;5071785;28;20237;-62
2021/12/13 04:26:12;;;;;;;18.80;9.63;;;10.00;99.90;;;;;;5073212;28;20235;-62
2021/12/13 04:28:42;;;;;;;21.47;9.97;;;10.20;99.90;;;;;;5079213;28;20325;-62
2021/12/13 04:31:15;;;;;;;23.90;13.40;;;10.10;99.90;;;;;;5073446;28;20448;-62
2021/12/13 04:33:46;;;;;;;17.37;10.67;;;10.10;99.90;;;;;;5066408;28;20240;-62
2021/12/13 04:36:18;;;;;;;18.93;10.43;;;10.10;99.90;;;;;;5065266;28;20334;-63
2021/12/13 04:38:51;;;;;;;18.60;9.87;;;10.10;99.90;;;;;;5075069;28;20602;-62
2021/12/13 04:41:27;;;;;;;19.10;10.00;;;10.10;99.90;;;;;;5073761;28;20311;-62
2021/12/13 04:43:58;;;;;;;17.53;9.63;;;10.20;99.90;;;;;;5072189;28;20358;-62
2021/12/13 04:46:28;;;;;;;17.97;9.47;;;10.20;99.90;;;;;;5076339;28;20235;-62
2021/12/13 04:48:59;;;;;;;18.47;9.40;;;10.10;99.90;;;;;;5079076;28;20234;-62
2021/12/13 04:51:35;;;;;;;18.77;10.20;;;10.10;99.90;;;;;;5074546;28;20273;-62
2021/12/13 04:54:06;;;;;;;20.53;11.00;;;10.10;99.90;;;;;;5074438;28;20238;-62
2021/12/13 04:56:36;;;;;;;18.70;9.93;;;10.10;99.90;;;;;;5075066;28;21060;-62
2021/12/13 04:59:07;;;;;;;19.27;10.80;;;10.10;99.90;;;;;;5054402;28;20791;-62
2021/12/13 05:01:35;;;;;;;16.50;9.90;;;10.10;99.90;;;;;;5073007;28;20322;-62
2021/12/13 05:04:06;;;;;;;19.10;9.60;;;10.00;99.90;;;;;;5064169;28;20707;-62
2021/12/13 05:06:37;;;;;;;19.60;10.50;;;10.10;99.90;;;;;;5066549;28;20316;-62
2021/12/13 05:09:08;;;;;;;21.27;11.03;;;10.10;99.90;;;;;;5067026;28;20647;-62
2021/12/13 05:11:45;;;;;;;19.73;10.40;;;10.10;99.90;;;;;;5076943;28;20241;-62
2021/12/13 05:14:14;;;;;;;19.27;9.93;;;10.20;99.90;;;;;;5075147;28;20603;-62
2021/12/13 05:16:46;;;;;;;20.83;10.60;;;10.20;99.90;;;;;;5073444;28;20231;-62
2021/12/13 05:19:24;;;;;;;22.27;11.23;;;10.20;99.90;;;;;;5079982;28;20486;-63
2021/12/13 05:21:53;;;;;;;24.30;11.73;;;10.20;99.90;;;;;;5077540;28;20309;-62
2021/12/13 05:24:24;;;;;;;23.73;11.60;;;10.20;99.90;;;;;;5067757;28;20235;-62
2021/12/13 05:26:57;;;;;;;24.53;12.53;;;10.20;99.90;;;;;;5062917;28;20334;-62
2021/12/13 05:29:30;;;;;;;23.13;11.43;;;10.30;99.90;;;;;;5072796;28;20267;-62
2021/12/13 05:32:05;;;;;;;28.73;12.90;;;10.30;99.90;;;;;;5073615;28;20232;-62
2021/12/13 05:34:44;;;;;;;25.60;12.43;;;10.40;99.90;;;;;;5067117;28;20786;-62
2021/12/13 05:37:13;;;;;;;23.87;12.37;;;10.20;99.90;;;;;;5072260;28;20317;-62
2021/12/13 05:39:57;;;;;;;26.03;13.47;;;10.30;99.90;;;;;;5073337;28;20595;-62
2021/12/13 05:42:37;;;;;;;30.30;13.73;;;10.20;99.90;;;;;;5068728;28;20243;-62
2021/12/13 05:45:07;;;;;;;25.97;13.40;;;10.20;99.90;;;;;;5067300;28;20242;-62
2021/12/13 05:47:37;;;;;;;27.87;13.93;;;10.20;99.90;;;;;;5072345;28;20774;-62
2021/12/13 05:50:08;;;;;;;29.27;14.47;;;10.30;99.90;;;;;;5069593;28;20245;-62
2021/12/13 05:52:40;;;;;;;29.70;14.17;;;10.30;99.90;;;;;;5060021;28;20322;-62
2021/12/13 05:55:13;;;;;;;32.53;15.53;;;10.40;99.90;;;;;;5067370;28;20239;-63
2021/12/13 05:57:49;;;;;;;40.97;18.20;;;10.40;99.90;;;;;;5071696;28;20697;-62
2021/12/13 06:00:22;;;;;;;33.23;15.60;;;10.20;99.90;;;;;;5079942;28;20236;-62
2021/12/13 06:03:04;;;;;;;35.83;16.10;;;10.20;99.90;;;;;;5073558;28;20299;-62
2021/12/13 06:05:36;;;;;;;38.00;16.10;;;10.20;99.90;;;;;;5078971;28;20231;-62
2021/12/13 06:08:07;;;;;;;36.87;16.83;;;10.30;99.90;;;;;;5070340;28;20274;-62
2021/12/13 06:10:47;;;;;;;33.80;14.90;;;10.30;99.90;;;;;;5068840;28;20230;-62
2021/12/13 06:13:24;;;;;;;36.60;15.80;;;10.20;99.90;;;;;;5082149;28;20710;-62
2021/12/13 06:15:57;;;;;;;34.50;15.17;;;10.20;99.90;;;;;;5070343;28;20240;-62
2021/12/13 06:18:33;;;;;;;35.40;15.20;;;10.20;99.90;;;;;;5064211;28;20289;-63
2021/12/13 06:21:24;;;;;;;39.73;17.50;;;10.20;99.90;;;;;;5071297;28;20262;-62
2021/12/13 06:23:53;;;;;;;36.03;16.60;;;10.20;99.90;;;;;;5070694;28;20311;-62
2021/12/13 06:26:28;;;;;;;34.73;16.23;;;10.10;99.90;;;;;;5067902;28;20687;-62
2021/12/13 06:29:00;;;;;;;33.20;14.37;;;10.10;99.90;;;;;;5064765;28;20584;-62
2021/12/13 06:31:37;;;;;;;28.70;13.27;;;10.20;99.90;;;;;;5066347;28;20273;-62
2021/12/13 06:34:09;;;;;;;29.97;13.60;;;10.20;99.90;;;;;;5066448;28;20607;-62
2021/12/13 06:36:40;;;;;;;30.43;14.87;;;10.20;99.90;;;;;;5074032;28;20314;-62
2021/12/13 06:39:10;;;;;;;28.03;13.90;;;10.10;99.90;;;;;;5069009;28;20263;-62
2021/12/13 06:41:41;;;;;;;28.20;14.80;;;10.20;99.90;;;;;;5067758;28;20473;-62
2021/12/13 06:44:20;;;;;;;28.73;14.13;;;10.20;99.90;;;;;;5067800;28;20240;-62
2021/12/13 06:46:56;;;;;;;25.17;13.10;;;10.10;99.90;;;;;;5057574;28;20326;-62
2021/12/13 06:49:29;;;;;;;24.53;13.00;;;10.20;99.90;;;;;;5054502;28;20592;-62
2021/12/13 06:52:00;;;;;;;21.20;11.77;;;10.10;99.90;;;;;;5060118;28;20315;-62
2021/12/13 06:54:36;;;;;;;22.37;11.93;;;10.10;99.90;;;;;;5076436;28;20245;-62
2021/12/13 06:57:10;;;;;;;20.90;12.03;;;10.10;99.90;;;;;;5083298;28;20772;-62
2021/12/13 06:59:48;;;;;;;22.70;13.07;;;10.10;99.90;;;;;;5073689;28;20326;-62
2021/12/13 07:02:18;;;;;;;20.13;12.90;;;10.10;99.90;;;;;;5075145;28;20238;-61
2021/12/13 07:05:00;;;;;;;21.47;12.03;;;10.10;99.90;;;;;;5072286;28;20655;-62
2021/12/13 07:07:33;;;;;;;21.73;12.47;;;10.10;99.90;;;;;;5071810;28;20324;-62
2021/12/13 07:10:06;;;;;;;18.53;11.70;;;10.10;99.90;;;;;;5074622;28;20238;-62
2021/12/13 07:12:44;;;;;;;21.10;12.47;;;10.10;99.90;;;;;;5079254;28;20237;-62
2021/12/13 07:15:27;;;;;;;19.20;12.30;;;10.10;99.90;;;;;;5082115;28;20317;-62
2021/12/13 07:18:18;;;;;;;19.90;12.83;;;10.10;99.90;;;;;;5078884;28;20357;-62
2021/12/13 07:20:50;;;;;;;19.67;12.73;;;10.10;99.90;;;;;;5064955;28;20269;-62
2021/12/13 07:23:18;;;;;;;19.47;13.20;;;10.00;99.90;;;;;;5074563;28;20329;-62
2021/12/13 07:25:49;;;;;;;17.83;12.03;;;10.00;99.90;;;;;;5071858;28;20595;-62
2021/12/13 07:28:31;;;;;;;18.70;13.10;;;10.00;99.90;;;;;;5070580;28;20612;-62
2021/12/13 07:31:03;;;;;;;17.90;12.63;;;10.10;99.90;;;;;;5071330;28;20727;-62
2021/12/13 07:33:37;;;;;;;21.70;13.63;;;10.10;99.90;;;;;;5071037;28;20235;-62
2021/12/13 07:36:18;;;;;;;20.40;13.50;;;10.10;99.90;;;;;;5064972;28;20325;-62
2021/12/13 07:38:50;;;;;;;23.23;15.03;;;10.10;99.90;;;;;;5059741;28;20239;-62
2021/12/13 07:41:19;;;;;;;21.67;14.63;;;10.10;99.90;;;;;;5070122;28;20265;-62
2021/12/13 07:43:47;;;;;;;23.33;14.87;;;10.10;99.90;;;;;;5065460;28;20231;-62
2021/12/13 07:46:28;;;;;;;24.53;14.67;;;10.10;99.90;;;;;;5067401;28;20245;-62
2021/12/13 07:48:59;;;;;;;23.97;16.07;;;10.10;99.90;;;;;;5070185;28;20239;-62
2021/12/13 07:51:30;;;;;;;24.37;15.80;;;10.20;99.90;;;;;;5072284;28;20643;-62
2021/12/13 07:54:04;;;;;;;24.77;15.87;;;10.10;99.90;;;;;;5066599;28;20711;-62
2021/12/13 07:56:44;;;;;;;24.47;16.30;;;10.20;99.90;;;;;;5066952;28;21030;-61
2021/12/13 07:59:15;;;;;;;22.93;15.23;;;10.10;99.90;;;;;;5073684;28;20318;-62
2021/12/13 08:01:49;;;;;;;26.27;16.17;;;10.20;99.90;;;;;;5063909;28;20322;-62
2021/12/13 08:04:22;;;;;;;27.03;16.23;;;10.00;99.90;;;;;;5064869;28;20707;-62
2021/12/13 08:06:53;;;;;;;24.37;16.17;;;10.10;99.90;;;;;;5068530;28;20269;-62
2021/12/13 08:09:25;;;;;;;26.50;17.43;;;10.10;99.90;;;;;;5068202;28;20281;-62
2021/12/13 08:11:56;;;;;;;28.63;17.57;;;10.10;99.90;;;;;;5067205;28;20621;-62
2021/12/13 08:14:30;;;;;;;27.33;16.50;;;10.10;99.90;;;;;;5071343;28;20227;-62
2021/12/13 08:17:09;;;;;;;30.13;17.73;;;10.20;99.90;;;;;;5067794;28;20283;-62
2021/12/13 08:19:38;;;;;;;29.63;17.53;;;10.10;99.90;;;;;;5068553;28;20317;-62
2021/12/13 08:22:13;;;;;;;32.10;19.40;;;10.10;99.90;;;;;;5063719;28;20239;-62
2021/12/13 08:24:44;;;;;;;29.20;18.07;;;10.10;99.90;;;;;;5057327;28;20953;-62
2021/12/13 08:27:16;;;;;;;27.63;17.57;;;10.10;99.90;;;;;;5073239;28;20317;-62
2021/12/13 08:29:45;;;;;;;28.77;18.13;;;10.10;99.90;;;;;;5064314;28;20318;-62
2021/12/13 08:32:18;;;;;;;27.93;18.47;;;10.10;99.90;;;;;;5070825;28;20359;-62
2021/12/13 08:34:50;;;;;;;31.73;18.47;;;10.10;99.90;;;;;;5066741;28;20318;-62
2021/12/13 08:37:24;;;;;;;32.70;19.87;;;10.10;99.90;;;;;;5069254;28;20260;-61
2021/12/13 08:40:01;;;;;;;29.97;18.50;;;10.10;99.90;;;;;;5068091;28;20246;-62
2021/12/13 08:42:36;;;;;;;29.90;17.50;;;10.00;99.90;;;;;;5067781;28;20239;-62
2021/12/13 08:45:12;;;;;;;30.10;18.27;;;10.10;99.90;;;;;;5069098;28;20246;-62
2021/12/13 08:47:45;;;;;;;36.03;19.37;;;10.10;99.90;;;;;;5059050;28;20699;-60
2021/12/13 08:50:21;;;;;;;30.40;17.77;;;10.10;99.90;;;;;;5059218;28;20416;-62
2021/12/13 08:52:55;;;;;;;31.93;18.23;;;10.10;99.90;;;;;;5072015;28;20236;-62
2021/12/13 08:55:28;;;;;;;30.47;18.10;;;10.10;99.90;;;;;;5066537;28;20331;-62
2021/12/13 08:58:00;;;;;;;32.77;17.93;;;10.10;99.90;;;;;;5066655;28;20697;-62
2021/12/13 09:00:49;;;;;;;30.10;17.97;;;10.10;99.90;;;;;;5068787;28;20321;-62
2021/12/13 09:03:38;;;;;;;23.00;16.50;;;10.10;99.90;;;;;;5055450;28;20270;-62
2021/12/13 09:06:24;;;;;;;29.77;17.13;;;10.10;99.90;;;;;;5064514;28;20246;-62
2021/12/13 09:08:55;;;;;;;27.13;16.53;;;10.10;99.90;;;;;;5058022;28;20297;-62
2021/12/13 09:11:27;;;;;;;27.40;15.60;;;10.20;99.90;;;;;;5062562;28;20284;-62
2021/12/13 09:13:59;;;;;;;26.93;16.80;;;10.20;99.90;;;;;;5070277;28;20313;-62
2021/12/13 09:16:40;;;;;;;28.83;16.47;;;10.20;99.90;;;;;;5063585;28;20289;-62
2021/12/13 09:19:15;;;;;;;26.60;16.10;;;10.20;99.90;;;;;;5064013;28;20570;-62
2021/12/13 09:21:55;;;;;;;26.47;15.37;;;10.10;99.90;;;;;;5075100;28;20717;-62
2021/12/13 09:24:30;;;;;;;23.63;15.00;;;10.20;99.90;;;;;;5069789;28;20532;-62
2021/12/13 09:27:22;;;;;;;23.23;14.93;;;10.20;99.90;;;;;;5066572;28;20605;-62
2021/12/13 09:29:56;;;;;;;23.10;14.13;;;10.20;99.90;;;;;;5063726;28;20319;-62
2021/12/13 09:32:32;;;;;;;25.80;14.73;;;10.30;99.90;;;;;;5068352;28;20327;-62
2021/12/13 09:35:18;;;;;;;23.63;13.53;;;10.30;99.90;;;;;;5067828;28;20722;-62
2021/12/13 09:37:48;;;;;;;23.27;14.07;;;10.30;99.90;;;;;;5036603;28;20322;-62
2021/12/13 09:40:18;;;;;;;21.57;13.70;;;10.20;99.90;;;;;;5066188;28;20238;-62
2021/12/13 09:42:48;;;;;;;24.87;13.80;;;10.20;99.90;;;;;;5066622;28;20236;-62
2021/12/13 09:45:26;;;;;;;23.40;14.07;;;10.30;99.90;;;;;;5068790;28;20245;-62
2021/12/13 09:47:55;;;;;;;20.23;13.37;;;10.30;99.90;;;;;;5067075;28;20336;-62
2021/12/13 09:50:31;;;;;;;19.33;13.30;;;10.30;99.90;;;;;;5064406;28;20236;-62
2021/12/13 09:53:04;;;;;;;19.67;12.93;;;10.30;99.90;;;;;;5056376;28;20238;-62
2021/12/13 09:55:35;;;;;;;22.10;13.23;;;10.30;99.90;;;;;;5074127;28;20279;-62
2021/12/13 09:58:08;;;;;;;18.00;12.83;;;10.30;99.90;;;;;;5071111;28;20628;-61
2021/12/13 10:00:43;;;;;;;19.77;13.47;;;10.40;99.90;;;;;;5065347;28;20235;-62
2021/12/13 10:03:16;;;;;;;19.60;13.03;;;10.40;99.90;;;;;;5068122;28;20249;-62
2021/12/13 10:05:49;;;;;;;20.90;14.00;;;10.40;99.90;;;;;;5059751;28;20259;-62
2021/12/13 10:08:20;;;;;;;18.47;12.87;;;10.40;99.90;;;;;;5062319;28;20920;-62
2021/12/13 10:10:52;;;;;;;17.67;13.50;;;10.50;99.90;;;;;;5066805;28;20236;-62
2021/12/13 10:13:24;;;;;;;20.73;13.17;;;10.50;99.90;;;;;;5063373;28;20250;-62
2021/12/13 10:15:55;;;;;;;18.80;12.80;;;10.40;99.90;;;;;;5062176;28;20269;-62
2021/12/13 10:18:30;;;;;;;16.80;12.17;;;10.40;99.90;;;;;;5064871;28;20239;-62
2021/12/13 10:21:02;;;;;;;20.50;13.27;;;10.40;99.90;;;;;;5056940;28;20246;-62
2021/12/13 10:23:34;;;;;;;18.83;13.23;;;10.40;99.90;;;;;;5049594;28;20242;-62
2021/12/13 10:26:25;;;;;;;19.13;13.47;;;10.40;99.90;;;;;;5054572;28;20250;-62
2021/12/13 10:28:56;;;;;;;21.87;14.83;;;10.40;99.90;;;;;;5068330;28;20259;-62
2021/12/13 10:31:29;;;;;;;17.90;13.90;;;10.30;99.90;;;;;;5067840;28;20775;-62
2021/12/13 10:34:01;;;;;;;19.20;14.73;;;10.30;99.90;;;;;;5063677;28;20322;-62
2021/12/13 10:36:32;;;;;;;23.33;15.63;;;10.30;99.90;;;;;;5071848;28;20362;-62
2021/12/13 10:39:04;;;;;;;20.47;15.93;;;10.30;99.90;;;;;;5062703;28;20322;-62
2021/12/13 10:41:55;;;;;;;24.37;17.37;;;10.30;99.90;;;;;;5070309;28;20318;-62
2021/12/13 10:44:28;;;;;;;25.03;17.43;;;10.30;99.90;;;;;;5069563;28;20246;-62
2021/12/13 10:47:00;;;;;;;25.27;17.60;;;10.30;99.90;;;;;;5059592;28;20326;-62
2021/12/13 10:49:30;;;;;;;21.20;16.53;;;10.20;99.90;;;;;;5059234;28;20227;-62
2021/12/13 10:52:05;;;;;;;24.37;17.50;;;10.20;99.90;;;;;;5060412;28;20239;-62
2021/12/13 10:54:37;;;;;;;24.20;17.03;;;10.20;99.90;;;;;;5061356;28;20772;-62
2021/12/13 10:57:09;;;;;;;24.53;17.87;;;10.20;99.90;;;;;;5059710;28;20694;-62
2021/12/13 10:59:43;;;;;;;23.27;18.07;;;10.20;99.90;;;;;;5061382;28;20243;-62
2021/12/13 11:02:16;;;;;;;25.70;18.33;;;10.20;99.90;;;;;;5065287;28;20725;-62
2021/12/13 11:04:49;;;;;;;24.37;18.13;;;10.20;99.90;;;;;;5070946;28;20240;-62
2021/12/13 11:07:19;;;;;;;25.13;18.17;;;10.20;99.90;;;;;;5066218;28;20723;-62
2021/12/13 11:09:48;;;;;;;25.43;18.33;;;10.20;99.90;;;;;;5072773;28;20614;-62
2021/12/13 11:12:22;;;;;;;23.23;17.63;;;10.10;99.90;;;;;;5062821;28;20278;-62
2021/12/13 11:14:53;;;;;;;26.97;18.63;;;10.20;99.90;;;;;;5065394;28;20247;-62
2021/12/13 11:17:25;;;;;;;25.33;18.23;;;10.20;99.90;;;;;;5058989;28;20236;-62
2021/12/13 11:19:57;;;;;;;24.83;18.93;;;10.20;99.90;;;;;;5066563;28;20341;-62
2021/12/13 11:22:29;;;;;;;24.57;18.73;;;10.20;99.90;;;;;;5070440;28;20323;-62
2021/12/13 11:25:03;;;;;;;26.33;19.37;;;10.20;99.90;;;;;;5062635;28;20261;-62
2021/12/13 11:27:34;;;;;;;26.40;19.07;;;10.20;99.90;;;;;;5062551;28;20264;-62
2021/12/13 11:30:06;;;;;;;24.80;19.20;;;10.20;99.90;;;;;;5059035;28;20239;-62
2021/12/13 11:33:04;;;;;;;24.10;18.60;;;10.60;99.90;;;;;;5057648;28;20238;-62
2021/12/13 11:36:10;;;;;;;25.03;19.07;;;10.50;99.90;;;;;;5025338;28;20244;-62
2021/12/13 11:39:09;;;;;;;30.23;20.97;;;10.40;99.90;;;;;;5051656;28;20254;-62
2021/12/13 11:41:57;;;;;;;27.30;19.80;;;10.30;99.90;;;;;;5062484;28;20674;-62
2021/12/13 11:44:50;;;;;;;29.27;20.47;;;10.30;99.90;;;;;;5062343;28;20236;-62
2021/12/13 11:47:53;;;;;;;26.83;20.30;;;10.20;99.90;;;;;;5057015;28;20622;-62
2021/12/13 11:51:10;;;;;;;29.33;21.27;;;10.30;99.90;;;;;;5044859;28;20813;-62
2021/12/13 11:54:14;;;;;;;32.27;20.63;;;10.30;99.90;;;;;;5066873;28;20204;-62
2021/12/13 11:57:09;;;;;;;28.40;20.70;;;10.30;99.90;;;;;;5063054;28;20298;-62
2021/12/13 11:59:51;;;;;;;35.67;21.23;;;10.30;99.90;;;;;;5070769;28;20270;-62
2021/12/13 12:02:34;;;;;;;27.87;20.97;;;10.30;99.90;;;;;;5067992;28;20326;-62
2021/12/13 12:05:40;;;;;;;31.57;21.97;;;10.30;99.90;;;;;;5066484;28;20203;-62
2021/12/13 12:08:35;;;;;;;28.57;21.27;;;10.30;99.90;;;;;;5060296;28;20273;-62
2021/12/13 12:11:36;;;;;;;26.73;20.90;;;10.30;99.90;;;;;;5062818;28;20276;-62
2021/12/13 12:14:09;;;;;;;26.77;20.00;;;10.30;99.90;;;;;;5076494;28;20218;-62
2021/12/13 12:16:40;;;;;;;29.63;19.93;;;10.30;99.90;;;;;;5068879;28;20267;-62
2021/12/13 12:19:13;;;;;;;27.93;20.80;;;10.30;99.90;;;;;;5069501;28;20230;-63
2021/12/13 12:21:50;;;;;;;26.37;19.57;;;10.30;99.90;;;;;;5074921;28;20208;-62
2021/12/13 12:24:21;;;;;;;28.20;20.63;;;10.30;99.90;;;;;;5074884;28;20227;-62
2021/12/13 12:26:55;;;;;;;29.63;20.23;;;10.20;99.90;;;;;;5075595;28;20221;-62
2021/12/13 12:29:26;;;;;;;27.80;20.00;;;10.30;99.90;;;;;;5071956;28;20235;-62
2021/12/13 12:32:01;;;;;;;26.33;19.43;;;10.20;99.90;;;;;;5083973;28;20291;-62
2021/12/13 12:34:29;;;;;;;25.87;20.27;;;10.20;99.90;;;;;;5077019;28;20210;-62
2021/12/13 12:37:40;;;;;;;29.00;21.17;;;10.20;99.90;;;;;;5075195;28;20802;-62
2021/12/13 12:40:35;;;;;;;28.63;19.83;;;10.20;99.90;;;;;;5067146;28;20208;-62
2021/12/13 12:43:07;;;;;;;28.60;18.73;;;10.20;99.90;;;;;;5054755;28;20639;-62
2021/12/13 12:45:39;;;;;;;30.37;21.63;;;10.20;99.90;;;;;;5070620;28;20429;-62
2021/12/13 12:48:18;;;;;;;28.17;21.20;;;10.20;99.90;;;;;;5075467;28;20299;-62
2021/12/13 12:50:57;;;;;;;25.00;18.53;;;10.10;99.90;;;;;;5066621;28;20314;-62
2021/12/13 12:53:35;;;;;;;25.97;20.33;;;10.20;99.90;;;;;;5078949;28;20214;-62
2021/12/13 12:56:08;;;;;;;26.20;20.17;;;10.10;99.90;;;;;;5071168;28;20243;-62
2021/12/13 12:58:40;;;;;;;30.87;21.87;;;10.10;99.90;;;;;;5072435;28;20216;-62
2021/12/13 13:01:18;;;;;;;28.13;20.37;;;10.10;99.90;;;;;;5079260;28;20615;-62
2021/12/13 13:03:47;;;;;;;27.03;20.70;;;10.20;99.90;;;;;;5063397;28;20618;-62
2021/12/13 13:06:20;;;;;;;28.23;21.37;;;10.20;99.90;;;;;;5069100;28;20269;-62
2021/12/13 13:08:52;;;;;;;33.37;22.43;;;10.20;99.90;;;;;;5071952;28;20207;-62
2021/12/13 13:11:29;;;;;;;30.77;20.83;;;10.20;99.90;;;;;;5071786;28;20311;-62
2021/12/13 13:14:10;;;;;;;26.10;20.67;;;10.20;99.90;;;;;;5074347;28;20238;-62